sensor_id;sensor_type;location;lat;lon;timestamp;temperature;humidity
4354;DHT22;11018;51.258;6.806;2023-09-19T00:01:33;16.20;61.80
4354;DHT22;11018;51.258;6.806;2023-09-19T00:03:58;16.20;63.10
4354;DHT22;11018;51.258;6.806;2023-09-19T00:06:25;16.20;62.40
4354;DHT22;11018;51.258;6.806;2023-09-19T00:08:51;16.20;61.10
4354;DHT22;11018;51.258;6.806;2023-09-19T00:11:17;16.10;61.30
4354;DHT22;11018;51.258;6.806;2023-09-19T00:13:42;16.10;61.70
4354;DHT22;11018;51.258;6.806;2023-09-19T00:16:09;16.10;61.90
4354;DHT22;11018;51.258;6.806;2023-09-19T00:18:39;16.10;62.60
4354;DHT22;11018;51.258;6.806;2023-09-19T00:21:05;16.10;62.10
4354;DHT22;11018;51.258;6.806;2023-09-19T00:23:32;16.10;62.80
4354;DHT22;11018;51.258;6.806;2023-09-19T00:25:59;16.00;63.10
4354;DHT22;11018;51.258;6.806;2023-09-19T00:28:25;16.10;62.50
4354;DHT22;11018;51.258;6.806;2023-09-19T00:30:51;16.00;62.50
4354;DHT22;11018;51.258;6.806;2023-09-19T00:33:17;16.00;63.20
4354;DHT22;11018;51.258;6.806;2023-09-19T00:35:51;16.00;62.30
4354;DHT22;11018;51.258;6.806;2023-09-19T00:38:17;16.00;61.70
4354;DHT22;11018;51.258;6.806;2023-09-19T00:40:47;16.00;62.20
4354;DHT22;11018;51.258;6.806;2023-09-19T00:43:13;16.00;60.80
4354;DHT22;11018;51.258;6.806;2023-09-19T00:45:43;16.00;60.90
4354;DHT22;11018;51.258;6.806;2023-09-19T00:48:09;16.10;59.90
4354;DHT22;11018;51.258;6.806;2023-09-19T00:50:36;16.00;59.50
4354;DHT22;11018;51.258;6.806;2023-09-19T00:53:02;16.00;60.70
4354;DHT22;11018;51.258;6.806;2023-09-19T00:55:42;16.00;61.50
4354;DHT22;11018;51.258;6.806;2023-09-19T00:58:10;15.90;59.60
4354;DHT22;11018;51.258;6.806;2023-09-19T01:00:35;16.00;60.10
4354;DHT22;11018;51.258;6.806;2023-09-19T01:03:01;16.00;60.00
4354;DHT22;11018;51.258;6.806;2023-09-19T01:05:27;15.90;60.00
4354;DHT22;11018;51.258;6.806;2023-09-19T01:07:53;15.90;60.60
4354;DHT22;11018;51.258;6.806;2023-09-19T01:10:20;15.80;61.30
4354;DHT22;11018;51.258;6.806;2023-09-19T01:23:34;15.80;61.70
4354;DHT22;11018;51.258;6.806;2023-09-19T01:29:26;15.90;61.40
4354;DHT22;11018;51.258;6.806;2023-09-19T01:31:59;15.80;62.70
4354;DHT22;11018;51.258;6.806;2023-09-19T01:35:00;15.80;62.90
4354;DHT22;11018;51.258;6.806;2023-09-19T01:37:29;15.70;63.80
4354;DHT22;11018;51.258;6.806;2023-09-19T01:39:59;15.70;63.90
4354;DHT22;11018;51.258;6.806;2023-09-19T01:42:49;15.70;62.40
4354;DHT22;11018;51.258;6.806;2023-09-19T01:45:37;15.70;63.80
4354;DHT22;11018;51.258;6.806;2023-09-19T01:51:01;15.70;63.30
4354;DHT22;11018;51.258;6.806;2023-09-19T01:53:35;15.70;62.10
4354;DHT22;11018;51.258;6.806;2023-09-19T01:56:05;15.80;60.90
4354;DHT22;11018;51.258;6.806;2023-09-19T01:58:53;15.80;61.80
4354;DHT22;11018;51.258;6.806;2023-09-19T02:01:22;15.70;62.30
4354;DHT22;11018;51.258;6.806;2023-09-19T02:03:50;15.60;63.80
4354;DHT22;11018;51.258;6.806;2023-09-19T02:06:16;15.60;64.30
4354;DHT22;11018;51.258;6.806;2023-09-19T02:08:43;15.60;64.50
4354;DHT22;11018;51.258;6.806;2023-09-19T02:11:08;15.70;63.10
4354;DHT22;11018;51.258;6.806;2023-09-19T02:13:34;15.70;61.90
4354;DHT22;11018;51.258;6.806;2023-09-19T02:16:00;15.60;62.70
4354;DHT22;11018;51.258;6.806;2023-09-19T02:18:25;15.70;61.80
4354;DHT22;11018;51.258;6.806;2023-09-19T02:20:53;15.70;61.80
4354;DHT22;11018;51.258;6.806;2023-09-19T02:23:20;15.60;60.80
4354;DHT22;11018;51.258;6.806;2023-09-19T02:25:56;15.70;60.90
4354;DHT22;11018;51.258;6.806;2023-09-19T02:28:26;15.70;59.50
4354;DHT22;11018;51.258;6.806;2023-09-19T02:30:55;15.70;59.40
4354;DHT22;11018;51.258;6.806;2023-09-19T02:33:21;15.60;57.40
4354;DHT22;11018;51.258;6.806;2023-09-19T02:35:47;15.60;57.30
4354;DHT22;11018;51.258;6.806;2023-09-19T02:38:14;15.60;57.20
4354;DHT22;11018;51.258;6.806;2023-09-19T02:40:43;15.60;56.10
4354;DHT22;11018;51.258;6.806;2023-09-19T02:43:09;15.50;55.20
4354;DHT22;11018;51.258;6.806;2023-09-19T02:45:35;15.50;53.70
4354;DHT22;11018;51.258;6.806;2023-09-19T02:48:00;15.60;50.10
4354;DHT22;11018;51.258;6.806;2023-09-19T02:50:27;15.60;50.20
4354;DHT22;11018;51.258;6.806;2023-09-19T02:52:53;15.50;50.30
4354;DHT22;11018;51.258;6.806;2023-09-19T02:55:19;15.60;49.30
4354;DHT22;11018;51.258;6.806;2023-09-19T02:57:57;15.60;49.90
4354;DHT22;11018;51.258;6.806;2023-09-19T03:00:23;15.50;51.00
4354;DHT22;11018;51.258;6.806;2023-09-19T03:02:50;15.50;50.10
4354;DHT22;11018;51.258;6.806;2023-09-19T03:05:16;15.50;49.20
4354;DHT22;11018;51.258;6.806;2023-09-19T03:07:41;15.40;50.30
4354;DHT22;11018;51.258;6.806;2023-09-19T03:10:08;15.40;50.90
4354;DHT22;11018;51.258;6.806;2023-09-19T03:12:34;15.40;50.60
4354;DHT22;11018;51.258;6.806;2023-09-19T03:15:00;15.50;50.90
4354;DHT22;11018;51.258;6.806;2023-09-19T03:17:26;15.50;50.60
4354;DHT22;11018;51.258;6.806;2023-09-19T03:19:52;15.40;50.70
4354;DHT22;11018;51.258;6.806;2023-09-19T03:22:19;15.40;50.70
4354;DHT22;11018;51.258;6.806;2023-09-19T03:24:44;15.40;50.30
4354;DHT22;11018;51.258;6.806;2023-09-19T03:27:12;15.40;50.70
4354;DHT22;11018;51.258;6.806;2023-09-19T03:29:42;15.30;51.10
4354;DHT22;11018;51.258;6.806;2023-09-19T03:32:08;15.30;50.70
4354;DHT22;11018;51.258;6.806;2023-09-19T03:34:37;15.30;50.50
4354;DHT22;11018;51.258;6.806;2023-09-19T03:37:06;15.30;51.00
4354;DHT22;11018;51.258;6.806;2023-09-19T03:39:32;15.20;51.40
4354;DHT22;11018;51.258;6.806;2023-09-19T03:41:58;15.20;51.60
4354;DHT22;11018;51.258;6.806;2023-09-19T03:44:23;15.20;51.90
4354;DHT22;11018;51.258;6.806;2023-09-19T03:46:49;15.20;52.10
4354;DHT22;11018;51.258;6.806;2023-09-19T03:49:14;15.20;52.00
4354;DHT22;11018;51.258;6.806;2023-09-19T03:51:40;15.20;52.90
4354;DHT22;11018;51.258;6.806;2023-09-19T03:54:07;15.20;53.00
4354;DHT22;11018;51.258;6.806;2023-09-19T03:56:33;15.20;52.80
4354;DHT22;11018;51.258;6.806;2023-09-19T03:58:59;15.20;52.80
4354;DHT22;11018;51.258;6.806;2023-09-19T04:01:24;15.20;52.70
4354;DHT22;11018;51.258;6.806;2023-09-19T04:03:50;15.20;52.70
4354;DHT22;11018;51.258;6.806;2023-09-19T04:06:17;15.30;52.90
4354;DHT22;11018;51.258;6.806;2023-09-19T04:08:43;15.30;53.10
4354;DHT22;11018;51.258;6.806;2023-09-19T04:11:10;15.20;53.40
4354;DHT22;11018;51.258;6.806;2023-09-19T04:13:36;15.20;53.10
4354;DHT22;11018;51.258;6.806;2023-09-19T04:16:02;15.30;52.80
4354;DHT22;11018;51.258;6.806;2023-09-19T04:18:32;15.20;53.40
4354;DHT22;11018;51.258;6.806;2023-09-19T04:20:58;15.20;53.80
4354;DHT22;11018;51.258;6.806;2023-09-19T04:23:25;15.30;54.40
4354;DHT22;11018;51.258;6.806;2023-09-19T04:25:50;15.30;52.80
4354;DHT22;11018;51.258;6.806;2023-09-19T04:28:16;15.30;52.70
4354;DHT22;11018;51.258;6.806;2023-09-19T04:30:42;15.30;53.10
4354;DHT22;11018;51.258;6.806;2023-09-19T04:33:08;15.20;52.60
4354;DHT22;11018;51.258;6.806;2023-09-19T04:35:34;15.30;51.80
4354;DHT22;11018;51.258;6.806;2023-09-19T04:38:00;15.20;52.40
4354;DHT22;11018;51.258;6.806;2023-09-19T04:40:26;15.20;52.90
4354;DHT22;11018;51.258;6.806;2023-09-19T04:42:55;15.20;52.20
4354;DHT22;11018;51.258;6.806;2023-09-19T04:45:25;15.20;52.20
4354;DHT22;11018;51.258;6.806;2023-09-19T04:47:52;15.20;52.20
4354;DHT22;11018;51.258;6.806;2023-09-19T04:50:17;15.20;51.80
4354;DHT22;11018;51.258;6.806;2023-09-19T04:52:44;15.10;52.50
4354;DHT22;11018;51.258;6.806;2023-09-19T04:55:14;15.10;52.90
4354;DHT22;11018;51.258;6.806;2023-09-19T04:57:43;15.20;52.10
4354;DHT22;11018;51.258;6.806;2023-09-19T05:00:20;15.30;51.80
4354;DHT22;11018;51.258;6.806;2023-09-19T05:02:50;15.20;51.70
4354;DHT22;11018;51.258;6.806;2023-09-19T05:05:16;15.20;52.20
4354;DHT22;11018;51.258;6.806;2023-09-19T05:07:46;15.20;52.00
4354;DHT22;11018;51.258;6.806;2023-09-19T05:10:12;15.20;52.60
4354;DHT22;11018;51.258;6.806;2023-09-19T05:12:39;15.30;52.50
4354;DHT22;11018;51.258;6.806;2023-09-19T05:15:05;15.20;52.10
4354;DHT22;11018;51.258;6.806;2023-09-19T05:17:35;15.20;52.10
4354;DHT22;11018;51.258;6.806;2023-09-19T05:20:04;15.20;52.10
4354;DHT22;11018;51.258;6.806;2023-09-19T05:22:41;15.20;52.20
4354;DHT22;11018;51.258;6.806;2023-09-19T05:25:09;15.20;52.00
4354;DHT22;11018;51.258;6.806;2023-09-19T05:27:35;15.20;51.60
4354;DHT22;11018;51.258;6.806;2023-09-19T05:30:00;15.40;50.90
4354;DHT22;11018;51.258;6.806;2023-09-19T05:32:26;15.50;49.40
4354;DHT22;11018;51.258;6.806;2023-09-19T05:34:52;15.50;49.30
4354;DHT22;11018;51.258;6.806;2023-09-19T05:37:19;15.60;47.20
4354;DHT22;11018;51.258;6.806;2023-09-19T05:39:45;15.70;46.60
4354;DHT22;11018;51.258;6.806;2023-09-19T05:42:10;15.80;45.70
4354;DHT22;11018;51.258;6.806;2023-09-19T05:44:36;15.80;46.10
4354;DHT22;11018;51.258;6.806;2023-09-19T05:47:05;15.90;46.20
4354;DHT22;11018;51.258;6.806;2023-09-19T05:49:31;16.00;44.60
4354;DHT22;11018;51.258;6.806;2023-09-19T05:51:56;16.10;44.10
4354;DHT22;11018;51.258;6.806;2023-09-19T05:54:24;16.20;43.30
4354;DHT22;11018;51.258;6.806;2023-09-19T05:56:50;16.00;43.40
4354;DHT22;11018;51.258;6.806;2023-09-19T05:59:18;16.20;42.90
4354;DHT22;11018;51.258;6.806;2023-09-19T06:01:44;16.10;44.10
4354;DHT22;11018;51.258;6.806;2023-09-19T06:04:09;16.20;43.50
4354;DHT22;11018;51.258;6.806;2023-09-19T06:06:35;16.30;43.10
4354;DHT22;11018;51.258;6.806;2023-09-19T06:09:04;16.30;42.60
4354;DHT22;11018;51.258;6.806;2023-09-19T06:11:31;16.40;42.10
4354;DHT22;11018;51.258;6.806;2023-09-19T06:14:00;16.40;42.30
4354;DHT22;11018;51.258;6.806;2023-09-19T06:16:30;16.40;42.60
4354;DHT22;11018;51.258;6.806;2023-09-19T06:18:57;16.40;42.30
4354;DHT22;11018;51.258;6.806;2023-09-19T06:21:25;16.50;42.00
4354;DHT22;11018;51.258;6.806;2023-09-19T06:23:52;16.50;42.50
4354;DHT22;11018;51.258;6.806;2023-09-19T06:26:18;16.50;41.80
4354;DHT22;11018;51.258;6.806;2023-09-19T06:28:43;16.40;42.50
4354;DHT22;11018;51.258;6.806;2023-09-19T06:31:09;16.50;42.30
4354;DHT22;11018;51.258;6.806;2023-09-19T06:33:36;16.50;42.20
4354;DHT22;11018;51.258;6.806;2023-09-19T06:36:07;16.60;42.50
4354;DHT22;11018;51.258;6.806;2023-09-19T06:38:33;16.60;42.20
4354;DHT22;11018;51.258;6.806;2023-09-19T06:41:02;16.60;42.50
4354;DHT22;11018;51.258;6.806;2023-09-19T06:43:30;16.70;42.50
4354;DHT22;11018;51.258;6.806;2023-09-19T06:45:56;16.70;42.60
4354;DHT22;11018;51.258;6.806;2023-09-19T06:48:22;16.90;41.70
4354;DHT22;11018;51.258;6.806;2023-09-19T06:50:50;17.00;41.00
4354;DHT22;11018;51.258;6.806;2023-09-19T06:53:16;17.00;41.20
4354;DHT22;11018;51.258;6.806;2023-09-19T06:55:42;17.00;41.20
4354;DHT22;11018;51.258;6.806;2023-09-19T06:58:09;17.00;41.20
4354;DHT22;11018;51.258;6.806;2023-09-19T07:00:36;17.00;41.20
4354;DHT22;11018;51.258;6.806;2023-09-19T07:03:07;17.30;40.60
4354;DHT22;11018;51.258;6.806;2023-09-19T07:05:40;17.10;40.50
4354;DHT22;11018;51.258;6.806;2023-09-19T07:08:07;17.20;40.60
4354;DHT22;11018;51.258;6.806;2023-09-19T07:10:33;17.20;39.80
4354;DHT22;11018;51.258;6.806;2023-09-19T07:13:01;17.20;40.10
4354;DHT22;11018;51.258;6.806;2023-09-19T07:15:28;17.20;40.30
4354;DHT22;11018;51.258;6.806;2023-09-19T07:17:54;17.40;40.00
4354;DHT22;11018;51.258;6.806;2023-09-19T07:20:21;17.50;39.70
4354;DHT22;11018;51.258;6.806;2023-09-19T07:22:52;17.50;39.50
4354;DHT22;11018;51.258;6.806;2023-09-19T07:25:20;17.50;39.90
4354;DHT22;11018;51.258;6.806;2023-09-19T07:27:46;17.60;39.80
4354;DHT22;11018;51.258;6.806;2023-09-19T07:30:12;17.60;38.80
4354;DHT22;11018;51.258;6.806;2023-09-19T07:32:38;17.70;38.50
4354;DHT22;11018;51.258;6.806;2023-09-19T07:35:04;17.80;37.80
4354;DHT22;11018;51.258;6.806;2023-09-19T07:37:33;17.70;38.10
4354;DHT22;11018;51.258;6.806;2023-09-19T07:39:59;17.80;37.80
4354;DHT22;11018;51.258;6.806;2023-09-19T07:42:26;17.90;37.10
4354;DHT22;11018;51.258;6.806;2023-09-19T07:44:52;18.00;37.70
4354;DHT22;11018;51.258;6.806;2023-09-19T07:47:19;18.00;37.60
4354;DHT22;11018;51.258;6.806;2023-09-19T07:49:49;18.20;37.20
4354;DHT22;11018;51.258;6.806;2023-09-19T07:52:15;18.10;37.20
4354;DHT22;11018;51.258;6.806;2023-09-19T07:54:41;18.20;37.40
4354;DHT22;11018;51.258;6.806;2023-09-19T07:57:07;18.20;37.20
4354;DHT22;11018;51.258;6.806;2023-09-19T07:59:33;18.20;36.80
4354;DHT22;11018;51.258;6.806;2023-09-19T08:01:58;18.10;37.20
4354;DHT22;11018;51.258;6.806;2023-09-19T08:04:24;18.10;38.20
4354;DHT22;11018;51.258;6.806;2023-09-19T08:06:51;18.10;37.00
4354;DHT22;11018;51.258;6.806;2023-09-19T08:09:17;18.20;37.00
4354;DHT22;11018;51.258;6.806;2023-09-19T08:11:47;18.30;36.50
4354;DHT22;11018;51.258;6.806;2023-09-19T08:14:12;18.40;35.60
4354;DHT22;11018;51.258;6.806;2023-09-19T08:16:39;18.50;35.80
4354;DHT22;11018;51.258;6.806;2023-09-19T08:19:05;19.00;35.80
4354;DHT22;11018;51.258;6.806;2023-09-19T08:21:31;18.50;35.90
4354;DHT22;11018;51.258;6.806;2023-09-19T08:23:57;18.60;34.90
4354;DHT22;11018;51.258;6.806;2023-09-19T08:26:23;18.60;35.10
4354;DHT22;11018;51.258;6.806;2023-09-19T08:28:49;18.60;34.70
4354;DHT22;11018;51.258;6.806;2023-09-19T08:31:16;18.60;35.70
4354;DHT22;11018;51.258;6.806;2023-09-19T08:33:43;18.50;35.80
4354;DHT22;11018;51.258;6.806;2023-09-19T08:36:10;18.60;35.80
4354;DHT22;11018;51.258;6.806;2023-09-19T08:38:39;18.70;35.30
4354;DHT22;11018;51.258;6.806;2023-09-19T08:41:06;18.90;34.50
4354;DHT22;11018;51.258;6.806;2023-09-19T08:43:35;18.90;33.80
4354;DHT22;11018;51.258;6.806;2023-09-19T08:46:11;19.00;33.10
4354;DHT22;11018;51.258;6.806;2023-09-19T08:49:05;19.00;32.50
4354;DHT22;11018;51.258;6.806;2023-09-19T08:51:45;19.00;33.40
4354;DHT22;11018;51.258;6.806;2023-09-19T08:54:35;19.00;33.50
4354;DHT22;11018;51.258;6.806;2023-09-19T08:57:06;19.10;33.30
4354;DHT22;11018;51.258;6.806;2023-09-19T08:59:38;19.20;33.00
4354;DHT22;11018;51.258;6.806;2023-09-19T09:02:11;19.40;32.50
4354;DHT22;11018;51.258;6.806;2023-09-19T09:04:40;19.50;31.70
4354;DHT22;11018;51.258;6.806;2023-09-19T09:07:12;19.50;31.10
4354;DHT22;11018;51.258;6.806;2023-09-19T09:09:39;19.40;31.20
4354;DHT22;11018;51.258;6.806;2023-09-19T09:12:12;19.40;31.30
4354;DHT22;11018;51.258;6.806;2023-09-19T09:14:39;19.40;30.50
4354;DHT22;11018;51.258;6.806;2023-09-19T09:17:05;19.30;30.40
4354;DHT22;11018;51.258;6.806;2023-09-19T09:19:31;19.30;31.10
4354;DHT22;11018;51.258;6.806;2023-09-19T09:22:07;19.50;30.90
4354;DHT22;11018;51.258;6.806;2023-09-19T09:24:33;19.70;30.00
4354;DHT22;11018;51.258;6.806;2023-09-19T09:26:59;19.70;29.80
4354;DHT22;11018;51.258;6.806;2023-09-19T09:29:41;19.80;29.50
4354;DHT22;11018;51.258;6.806;2023-09-19T09:34:57;19.80;28.60
4354;DHT22;11018;51.258;6.806;2023-09-19T09:37:24;19.80;28.80
4354;DHT22;11018;51.258;6.806;2023-09-19T09:40:02;20.00;29.20
4354;DHT22;11018;51.258;6.806;2023-09-19T09:42:40;20.30;28.30
4354;DHT22;11018;51.258;6.806;2023-09-19T09:48:00;20.60;27.60
4354;DHT22;11018;51.258;6.806;2023-09-19T09:50:30;21.00;26.40
4354;DHT22;11018;51.258;6.806;2023-09-19T09:53:19;21.00;25.80
4354;DHT22;11018;51.258;6.806;2023-09-19T09:56:01;20.80;26.00
4354;DHT22;11018;51.258;6.806;2023-09-19T09:58:28;20.50;25.70
4354;DHT22;11018;51.258;6.806;2023-09-19T10:00:58;20.50;26.70
4354;DHT22;11018;51.258;6.806;2023-09-19T10:03:41;20.50;26.70
4354;DHT22;11018;51.258;6.806;2023-09-19T10:06:10;20.30;26.70
4354;DHT22;11018;51.258;6.806;2023-09-19T10:11:31;20.00;26.90
4354;DHT22;11018;51.258;6.806;2023-09-19T10:13:58;20.00;26.60
4354;DHT22;11018;51.258;6.806;2023-09-19T10:16:29;20.00;26.60
4354;DHT22;11018;51.258;6.806;2023-09-19T10:19:00;19.90;26.00
4354;DHT22;11018;51.258;6.806;2023-09-19T10:21:28;19.90;26.90
4354;DHT22;11018;51.258;6.806;2023-09-19T10:23:58;19.80;26.80
4354;DHT22;11018;51.258;6.806;2023-09-19T10:26:26;19.80;27.50
4354;DHT22;11018;51.258;6.806;2023-09-19T10:28:56;19.80;27.80
4354;DHT22;11018;51.258;6.806;2023-09-19T10:31:27;20.00;27.00
4354;DHT22;11018;51.258;6.806;2023-09-19T10:33:55;20.10;27.10
4354;DHT22;11018;51.258;6.806;2023-09-19T10:36:24;20.20;26.20
4354;DHT22;11018;51.258;6.806;2023-09-19T10:38:55;20.20;25.60
4354;DHT22;11018;51.258;6.806;2023-09-19T10:41:23;20.50;25.70
4354;DHT22;11018;51.258;6.806;2023-09-19T10:43:51;20.60;25.10
4354;DHT22;11018;51.258;6.806;2023-09-19T10:46:19;20.50;25.30
4354;DHT22;11018;51.258;6.806;2023-09-19T10:48:45;20.60;25.30
4354;DHT22;11018;51.258;6.806;2023-09-19T10:51:21;20.70;24.50
4354;DHT22;11018;51.258;6.806;2023-09-19T10:54:29;20.80;24.20
4354;DHT22;11018;51.258;6.806;2023-09-19T10:56:53;20.80;24.20
4354;DHT22;11018;51.258;6.806;2023-09-19T10:59:21;21.10;23.90
4354;DHT22;11018;51.258;6.806;2023-09-19T11:01:48;21.30;23.40
4354;DHT22;11018;51.258;6.806;2023-09-19T11:04:38;21.30;23.60
4354;DHT22;11018;51.258;6.806;2023-09-19T11:07:09;21.40;23.20
4354;DHT22;11018;51.258;6.806;2023-09-19T11:09:53;21.50;22.10
4354;DHT22;11018;51.258;6.806;2023-09-19T11:14:57;21.20;23.10
4354;DHT22;11018;51.258;6.806;2023-09-19T11:17:33;21.00;23.50
4354;DHT22;11018;51.258;6.806;2023-09-19T11:30:34;20.60;24.20
4354;DHT22;11018;51.258;6.806;2023-09-19T11:36:11;21.00;22.20
4354;DHT22;11018;51.258;6.806;2023-09-19T11:43:50;21.10;21.50
4354;DHT22;11018;51.258;6.806;2023-09-19T11:46:17;21.00;20.90
4354;DHT22;11018;51.258;6.806;2023-09-19T11:48:48;21.00;21.70
4354;DHT22;11018;51.258;6.806;2023-09-19T11:51:39;21.00;22.40
4354;DHT22;11018;51.258;6.806;2023-09-19T11:54:10;21.00;22.30
4354;DHT22;11018;51.258;6.806;2023-09-19T11:56:41;21.30;21.80
4354;DHT22;11018;51.258;6.806;2023-09-19T11:59:08;21.20;20.90
4354;DHT22;11018;51.258;6.806;2023-09-19T12:01:33;21.10;20.50
4354;DHT22;11018;51.258;6.806;2023-09-19T12:04:01;21.00;19.90
4354;DHT22;11018;51.258;6.806;2023-09-19T12:06:30;20.90;20.00
4354;DHT22;11018;51.258;6.806;2023-09-19T12:08:58;20.90;20.20
4354;DHT22;11018;51.258;6.806;2023-09-19T12:11:29;20.80;20.20
4354;DHT22;11018;51.258;6.806;2023-09-19T12:13:58;20.80;21.50
4354;DHT22;11018;51.258;6.806;2023-09-19T12:16:26;20.90;20.70
4354;DHT22;11018;51.258;6.806;2023-09-19T12:18:56;20.80;20.20
4354;DHT22;11018;51.258;6.806;2023-09-19T12:21:29;20.80;19.70
4354;DHT22;11018;51.258;6.806;2023-09-19T12:24:05;20.80;19.90
4354;DHT22;11018;51.258;6.806;2023-09-19T12:26:42;20.80;20.40
4354;DHT22;11018;51.258;6.806;2023-09-19T12:29:16;20.80;20.90
4354;DHT22;11018;51.258;6.806;2023-09-19T12:32:02;20.90;19.80
4354;DHT22;11018;51.258;6.806;2023-09-19T12:34:30;20.90;19.40
4354;DHT22;11018;51.258;6.806;2023-09-19T12:39:42;21.10;19.70
4354;DHT22;11018;51.258;6.806;2023-09-19T12:42:10;21.10;19.40
4354;DHT22;11018;51.258;6.806;2023-09-19T12:44:44;21.10;20.50
4354;DHT22;11018;51.258;6.806;2023-09-19T12:47:11;21.20;19.90
4354;DHT22;11018;51.258;6.806;2023-09-19T12:52:51;21.30;18.70
4354;DHT22;11018;51.258;6.806;2023-09-19T12:55:21;21.40;18.70
4354;DHT22;11018;51.258;6.806;2023-09-19T12:57:58;21.50;18.20
4354;DHT22;11018;51.258;6.806;2023-09-19T13:00:40;21.60;18.90
4354;DHT22;11018;51.258;6.806;2023-09-19T13:05:48;22.30;17.70
4354;DHT22;11018;51.258;6.806;2023-09-19T13:11:10;22.50;16.50
4354;DHT22;11018;51.258;6.806;2023-09-19T13:14:15;22.80;16.70
4354;DHT22;11018;51.258;6.806;2023-09-19T13:17:03;23.00;15.90
4354;DHT22;11018;51.258;6.806;2023-09-19T13:19:45;23.30;15.90
4354;DHT22;11018;51.258;6.806;2023-09-19T13:25:18;23.40;15.70
4354;DHT22;11018;51.258;6.806;2023-09-19T13:27:54;23.70;15.50
4354;DHT22;11018;51.258;6.806;2023-09-19T13:30:26;23.70;14.40
4354;DHT22;11018;51.258;6.806;2023-09-19T13:32:52;23.70;14.70
4354;DHT22;11018;51.258;6.806;2023-09-19T13:35:18;23.70;14.30
4354;DHT22;11018;51.258;6.806;2023-09-19T13:37:46;23.40;15.00
4354;DHT22;11018;51.258;6.806;2023-09-19T13:40:15;23.50;15.70
4354;DHT22;11018;51.258;6.806;2023-09-19T13:42:42;23.30;15.70
4354;DHT22;11018;51.258;6.806;2023-09-19T13:45:08;23.20;15.90
4354;DHT22;11018;51.258;6.806;2023-09-19T13:47:38;22.80;15.90
4354;DHT22;11018;51.258;6.806;2023-09-19T13:50:04;22.40;16.80
4354;DHT22;11018;51.258;6.806;2023-09-19T13:52:31;22.40;17.20
4354;DHT22;11018;51.258;6.806;2023-09-19T13:54:57;22.30;17.70
4354;DHT22;11018;51.258;6.806;2023-09-19T13:57:24;22.20;18.00
4354;DHT22;11018;51.258;6.806;2023-09-19T13:59:51;22.20;18.40
4354;DHT22;11018;51.258;6.806;2023-09-19T14:02:17;22.20;17.90
4354;DHT22;11018;51.258;6.806;2023-09-19T14:04:44;22.10;18.50
4354;DHT22;11018;51.258;6.806;2023-09-19T14:07:09;21.90;18.20
4354;DHT22;11018;51.258;6.806;2023-09-19T14:09:36;21.80;18.90
4354;DHT22;11018;51.258;6.806;2023-09-19T14:12:02;21.80;19.00
4354;DHT22;11018;51.258;6.806;2023-09-19T14:14:28;21.90;19.10
4354;DHT22;11018;51.258;6.806;2023-09-19T14:16:53;21.80;19.00
4354;DHT22;11018;51.258;6.806;2023-09-19T14:19:19;21.80;18.90
4354;DHT22;11018;51.258;6.806;2023-09-19T14:21:45;21.90;19.40
4354;DHT22;11018;51.258;6.806;2023-09-19T14:24:10;22.10;19.20
4354;DHT22;11018;51.258;6.806;2023-09-19T14:29:03;21.90;18.80
4354;DHT22;11018;51.258;6.806;2023-09-19T14:31:29;21.90;19.70
4354;DHT22;11018;51.258;6.806;2023-09-19T14:33:55;22.10;19.00
4354;DHT22;11018;51.258;6.806;2023-09-19T14:36:22;22.10;19.10
4354;DHT22;11018;51.258;6.806;2023-09-19T14:38:48;22.20;19.30
4354;DHT22;11018;51.258;6.806;2023-09-19T14:41:19;22.30;19.10
4354;DHT22;11018;51.258;6.806;2023-09-19T14:43:44;22.20;19.10
4354;DHT22;11018;51.258;6.806;2023-09-19T14:46:10;22.10;19.30
4354;DHT22;11018;51.258;6.806;2023-09-19T14:48:36;22.00;19.50
4354;DHT22;11018;51.258;6.806;2023-09-19T14:51:06;22.00;19.70
4354;DHT22;11018;51.258;6.806;2023-09-19T14:53:37;21.90;19.80
4354;DHT22;11018;51.258;6.806;2023-09-19T14:56:08;21.90;20.00
4354;DHT22;11018;51.258;6.806;2023-09-19T14:58:34;21.90;19.70
4354;DHT22;11018;51.258;6.806;2023-09-19T15:01:08;21.80;19.80
4354;DHT22;11018;51.258;6.806;2023-09-19T15:03:36;21.70;20.00
4354;DHT22;11018;51.258;6.806;2023-09-19T15:06:06;21.50;20.60
4354;DHT22;11018;51.258;6.806;2023-09-19T15:08:36;21.30;21.00
4354;DHT22;11018;51.258;6.806;2023-09-19T15:11:04;21.20;21.10
4354;DHT22;11018;51.258;6.806;2023-09-19T15:13:31;21.10;21.30
4354;DHT22;11018;51.258;6.806;2023-09-19T15:16:00;21.10;21.50
4354;DHT22;11018;51.258;6.806;2023-09-19T15:18:27;21.10;21.70
4354;DHT22;11018;51.258;6.806;2023-09-19T15:20:52;21.10;21.50
4354;DHT22;11018;51.258;6.806;2023-09-19T15:23:18;21.10;21.40
4354;DHT22;11018;51.258;6.806;2023-09-19T15:25:50;21.00;22.00
4354;DHT22;11018;51.258;6.806;2023-09-19T15:28:16;21.00;22.50
4354;DHT22;11018;51.258;6.806;2023-09-19T15:30:42;21.00;21.70
4354;DHT22;11018;51.258;6.806;2023-09-19T15:33:08;21.10;22.10
4354;DHT22;11018;51.258;6.806;2023-09-19T15:35:33;21.10;22.20
4354;DHT22;11018;51.258;6.806;2023-09-19T15:37:59;21.10;21.90
4354;DHT22;11018;51.258;6.806;2023-09-19T15:40:26;21.20;21.10
4354;DHT22;11018;51.258;6.806;2023-09-19T15:42:53;21.30;21.50
4354;DHT22;11018;51.258;6.806;2023-09-19T15:45:19;21.50;21.00
4354;DHT22;11018;51.258;6.806;2023-09-19T15:47:45;21.60;20.80
4354;DHT22;11018;51.258;6.806;2023-09-19T15:50:11;21.70;20.20
4354;DHT22;11018;51.258;6.806;2023-09-19T15:52:39;21.80;19.90
4354;DHT22;11018;51.258;6.806;2023-09-19T15:55:05;21.60;20.10
4354;DHT22;11018;51.258;6.806;2023-09-19T15:57:37;21.50;20.90
4354;DHT22;11018;51.258;6.806;2023-09-19T16:00:03;21.50;21.00
4354;DHT22;11018;51.258;6.806;2023-09-19T16:02:32;21.60;20.70
4354;DHT22;11018;51.258;6.806;2023-09-19T16:04:58;21.60;20.90
4354;DHT22;11018;51.258;6.806;2023-09-19T16:07:23;21.60;20.70
4354;DHT22;11018;51.258;6.806;2023-09-19T16:09:49;21.70;20.30
4354;DHT22;11018;51.258;6.806;2023-09-19T16:12:14;21.80;20.10
4354;DHT22;11018;51.258;6.806;2023-09-19T16:14:40;21.80;20.20
4354;DHT22;11018;51.258;6.806;2023-09-19T16:17:06;21.90;19.90
4354;DHT22;11018;51.258;6.806;2023-09-19T16:19:33;22.00;20.00
4354;DHT22;11018;51.258;6.806;2023-09-19T16:21:59;22.10;19.70
4354;DHT22;11018;51.258;6.806;2023-09-19T16:24:25;22.20;19.90
4354;DHT22;11018;51.258;6.806;2023-09-19T16:26:51;22.10;20.00
4354;DHT22;11018;51.258;6.806;2023-09-19T16:29:18;22.00;20.10
4354;DHT22;11018;51.258;6.806;2023-09-19T16:31:46;21.80;20.60
4354;DHT22;11018;51.258;6.806;2023-09-19T16:34:12;21.70;20.90
4354;DHT22;11018;51.258;6.806;2023-09-19T16:36:39;21.60;21.10
4354;DHT22;11018;51.258;6.806;2023-09-19T16:39:04;21.50;21.00
4354;DHT22;11018;51.258;6.806;2023-09-19T16:41:32;21.50;21.40
4354;DHT22;11018;51.258;6.806;2023-09-19T16:44:00;21.40;21.90
4354;DHT22;11018;51.258;6.806;2023-09-19T16:46:26;21.40;22.00
4354;DHT22;11018;51.258;6.806;2023-09-19T16:48:51;21.30;22.40
4354;DHT22;11018;51.258;6.806;2023-09-19T16:51:17;21.20;22.50
4354;DHT22;11018;51.258;6.806;2023-09-19T16:53:44;21.10;23.10
4354;DHT22;11018;51.258;6.806;2023-09-19T16:56:14;21.00;23.30
4354;DHT22;11018;51.258;6.806;2023-09-19T16:58:43;20.80;23.70